Time;durP1;ratioP1;P1;durP2;ratioP2;P2;SDS_P1;SDS_P2;PMS_P1;PMS_P2;Temp;Humidity;BMP_temperature;BMP_pressure;BME280_temperature;BME280_humidity;BME280_pressure;Samples;Min_cycle;Max_cycle;Signal;HPM_P1;HPM_P2
2021/06/09 00:02:14;;;;;;;;;;;;;;;22.66;53.37;99470.03;5091545;28;19962;-48
2021/06/09 00:04:39;;;;;;;;;;;;;;;22.62;53.65;99466.28;5091462;28;19969;-47
2021/06/09 00:07:05;;;;;;;;;;;;;;;22.49;53.86;99467.00;5091620;28;19912;-48
2021/06/09 00:09:30;;;;;;;;;;;;;;;22.48;53.97;99468.06;5090048;28;20011;-48
2021/06/09 00:11:55;;;;;;;;;;;;;;;22.53;53.66;99463.41;5091276;28;19919;-50
2021/06/09 00:14:21;;;;;;;;;;;;;;;22.51;54.16;99465.59;5090938;28;19920;-51
2021/06/09 00:16:46;;;;;;;;;;;;;;;22.48;53.98;99462.66;5090723;28;19920;-48
2021/06/09 00:19:12;;;;;;;;;;;;;;;22.48;54.27;99462.66;5090664;28;19913;-50
2021/06/09 00:21:37;;;;;;;;;;;;;;;22.34;54.41;99438.97;5094476;28;20386;-49
2021/06/09 00:24:03;;;;;;;;;;;;;;;22.44;54.25;99463.22;5111329;28;19915;-49
2021/06/09 00:26:28;;;;;;;;;;;;;;;22.38;54.21;99458.97;5111131;28;19977;-49
2021/06/09 00:28:53;;;;;;;;;;;;;;;22.35;54.37;99466.84;5109328;28;19929;-51
2021/06/09 00:31:19;;;;;;;;;;;;;;;22.19;54.41;99456.16;5089917;28;20273;-48
2021/06/09 00:33:44;;;;;;;;;;;;;;;22.13;54.47;99454.59;5090657;28;19948;-50
2021/06/09 00:36:09;;;;;;;;;;;;;;;22.14;54.60;99455.41;5090583;28;19916;-49
2021/06/09 00:38:34;;;;;;;;;;;;;;;22.14;54.52;99453.53;5091001;28;19954;-50
2021/06/09 00:41:00;;;;;;;;;;;;;;;22.12;54.39;99454.88;5091092;28;19916;-49
2021/06/09 00:43:27;;;;;;;;;;;;;;;21.85;54.40;99454.31;5090519;28;20291;-47
2021/06/09 00:45:55;;;;;;;;;;;;;;;22.02;54.69;99456.59;5090504;28;19912;-50
2021/06/09 00:48:25;;;;;;;;;;;;;;;21.96;54.08;99457.75;5089263;28;20023;-48
2021/06/09 00:50:50;;;;;;;;;;;;;;;22.08;54.12;99460.06;5090860;28;19958;-48
2021/06/09 00:53:35;;;;;;;;;;;;;;;22.13;53.60;99468.16;5091005;28;20313;-51
2021/06/09 00:56:02;;;;;;;;;;;;;;;22.00;54.05;99460.69;5090462;28;20261;-52
2021/06/09 00:58:27;;;;;;;;;;;;;;;22.01;54.07;99465.84;5090153;28;20018;-49
2021/06/09 01:00:52;;;;;;;;;;;;;;;21.96;54.17;99465.06;5090407;28;20038;-47
2021/06/09 01:03:18;;;;;;;;;;;;;;;22.10;53.76;99471.41;5090737;28;19961;-47
2021/06/09 01:05:43;;;;;;;;;;;;;;;22.01;53.90;99462.31;5091043;28;19916;-51
2021/06/09 01:08:08;;;;;;;;;;;;;;;22.06;53.56;99459.53;5091252;28;19928;-52
2021/06/09 01:10:34;;;;;;;;;;;;;;;21.92;54.15;99459.41;5090695;28;19912;-52
2021/06/09 01:12:59;;;;;;;;;;;;;;;21.88;54.08;99457.56;5090951;28;19916;-51
2021/06/09 01:15:25;;;;;;;;;;;;;;;21.95;54.17;99458.03;5090826;28;19920;-51
2021/06/09 01:17:50;;;;;;;;;;;;;;;21.95;54.46;99453.44;5090773;28;19920;-51
2021/06/09 01:20:15;;;;;;;;;;;;;;;21.92;54.06;99451.28;5090760;28;19912;-49
2021/06/09 01:22:41;;;;;;;;;;;;;;;21.93;53.92;99454.81;5103524;28;19923;-52
2021/06/09 01:25:06;;;;;;;;;;;;;;;21.77;53.79;99454.94;5111026;28;20102;-51
2021/06/09 01:27:32;;;;;;;;;;;;;;;21.77;54.11;99456.84;5111077;28;19915;-48
2021/06/09 01:29:58;;;;;;;;;;;;;;;21.70;54.30;99445.53;5098843;28;19931;-49
2021/06/09 01:32:23;;;;;;;;;;;;;;;21.79;54.32;99446.53;5093766;28;19916;-50
2021/06/09 01:34:48;;;;;;;;;;;;;;;21.66;54.56;99448.81;5093420;28;19927;-49
2021/06/09 01:37:14;;;;;;;;;;;;;;;21.74;54.09;99446.56;5093742;28;20322;-50
2021/06/09 01:39:39;;;;;;;;;;;;;;;21.81;54.06;99445.16;5093441;28;20338;-48
2021/06/09 01:42:04;;;;;;;;;;;;;;;21.75;54.19;99450.91;5094867;28;20011;-52
2021/06/09 01:44:30;;;;;;;;;;;;;;;21.62;54.45;99444.25;5094737;28;19962;-49
2021/06/09 01:46:55;;;;;;;;;;;;;;;21.54;54.59;99447.56;5094497;28;19912;-47
2021/06/09 01:49:20;;;;;;;;;;;;;;;21.59;54.23;99445.63;5093375;28;19934;-48
2021/06/09 01:51:45;;;;;;;;;;;;;;;21.60;53.85;99447.22;5092889;28;19934;-49
2021/06/09 01:54:11;;;;;;;;;;;;;;;21.52;54.39;99450.56;5094201;28;20275;-48
2021/06/09 01:56:36;;;;;;;;;;;;;;;21.43;55.09;99444.91;5094213;28;19923;-51
2021/06/09 01:59:15;;;;;;;;;;;;;;;21.24;55.34;99452.09;5092602;28;20349;-51
2021/06/09 02:01:40;;;;;;;;;;;;;;;21.24;55.42;99443.97;5092855;28;19964;-47
2021/06/09 02:04:08;;;;;;;;;;;;;;;21.18;55.70;99445.09;5094272;28;19919;-49
2021/06/09 02:06:36;;;;;;;;;;;;;;;21.28;54.95;99445.84;5094216;28;20671;-49
2021/06/09 02:09:02;;;;;;;;;;;;;;;21.32;55.19;99435.25;5094197;28;19912;-50
2021/06/09 02:11:27;;;;;;;;;;;;;;;21.44;54.81;99449.28;5094257;28;19916;-50
2021/06/09 02:13:52;;;;;;;;;;;;;;;21.44;54.79;99445.75;5094357;28;19916;-50
2021/06/09 02:16:17;;;;;;;;;;;;;;;21.24;55.04;99443.97;5094359;28;19920;-52
2021/06/09 02:18:43;;;;;;;;;;;;;;;21.32;55.62;99450.69;5093863;28;20311;-52
2021/06/09 02:21:08;;;;;;;;;;;;;;;21.31;55.36;99447.16;5094179;28;19912;-52
2021/06/09 02:23:35;;;;;;;;;;;;;;;21.53;54.46;99449.44;5114178;28;20317;-48
2021/06/09 02:26:00;;;;;;;;;;;;;;;21.68;53.75;99451.22;5114679;27;19942;-49
2021/06/09 02:28:27;;;;;;;;;;;;;;;21.67;53.55;99447.72;5113525;28;19916;-51
2021/06/09 02:30:52;;;;;;;;;;;;;;;21.73;53.40;99456.59;5114058;28;19919;-50
2021/06/09 02:33:23;;;;;;;;;;;;;;;21.72;54.05;99451.47;5114142;28;19912;-49
2021/06/09 02:35:48;;;;;;;;;;;;;;;21.79;53.72;99454.66;5113734;28;19916;-48
2021/06/09 02:38:14;;;;;;;;;;;;;;;21.64;53.90;99450.19;5114080;28;19920;-50
2021/06/09 02:40:39;;;;;;;;;;;;;;;21.38;55.61;99461.19;5114274;28;20356;-50
2021/06/09 02:43:05;;;;;;;;;;;;;;;21.38;54.75;99450.38;5112723;28;20033;-50
2021/06/09 02:45:30;;;;;;;;;;;;;;;21.56;53.73;99456.22;5114047;28;19995;-48
2021/06/09 02:47:58;;;;;;;;;;;;;;;21.55;54.38;99460.00;5113982;28;20383;-49
2021/06/09 02:50:23;;;;;;;;;;;;;;;21.55;54.00;99463.53;5113867;28;20005;-49
2021/06/09 02:52:55;;;;;;;;;;;;;;;21.72;53.89;99463.09;5113990;28;20382;-50
2021/06/09 02:55:39;;;;;;;;;;;;;;;21.78;54.18;99462.00;5113598;28;19981;-48
2021/06/09 02:58:08;;;;;;;;;;;;;;;22.04;53.72;99462.53;5113549;28;20358;-51
2021/06/09 03:00:45;;;;;;;;;;;;;;;22.16;53.37;99470.28;5094330;28;19912;-52
2021/06/09 03:03:15;;;;;;;;;;;;;;;22.16;53.33;99473.00;5092490;28;20050;-49
2021/06/09 03:05:41;;;;;;;;;;;;;;;22.13;53.27;99467.34;5091831;28;19919;-51
2021/06/09 03:08:27;;;;;;;;;;;;;;;22.06;54.06;99465.75;5091829;28;19924;-51
2021/06/09 03:10:55;;;;;;;;;;;;;;;21.71;54.42;99466.13;5093092;28;20068;-49
2021/06/09 03:14:00;;;;;;;;;;;;;;;21.31;55.15;99473.44;5093090;28;19923;-48
2021/06/09 03:16:36;;;;;;;;;;;;;;;21.21;57.87;99474.28;5092558;28;19920;-47
2021/06/09 03:19:03;;;;;;;;;;;;;;;21.00;56.45;99479.84;5092621;28;19916;-50
2021/06/09 03:21:35;;;;;;;;;;;;;;;21.18;55.90;99481.06;5094550;28;19912;-54
2021/06/09 03:24:11;;;;;;;;;;;;;;;21.25;55.55;99475.34;5110995;28;19916;-50
2021/06/09 03:26:56;;;;;;;;;;;;;;;21.20;56.06;99486.22;5111265;28;19911;-50
2021/06/09 03:29:24;;;;;;;;;;;;;;;21.07;56.40;99474.91;5112763;28;19935;-51
2021/06/09 03:31:56;;;;;;;;;;;;;;;20.94;56.99;99474.72;5112074;28;19912;-51
2021/06/09 03:34:22;;;;;;;;;;;;;;;20.77;58.13;99467.78;5111830;28;20441;-48
2021/06/09 03:36:48;;;;;;;;;;;;;;;21.46;56.04;99474.16;5110401;28;20002;-50
2021/06/09 03:39:13;;;;;;;;;;;;;;;21.32;56.70;99467.72;5110478;28;19915;-49
2021/06/09 03:41:40;;;;;;;;;;;;;;;21.94;55.40;99469.97;5110337;28;19912;-49
2021/06/09 03:44:06;;;;;;;;;;;;;;;22.19;54.44;99467.00;5110358;28;20368;-51
2021/06/09 03:46:31;;;;;;;;;;;;;;;22.65;53.82;99473.81;5108349;28;20379;-49
2021/06/09 03:48:57;;;;;;;;;;;;;;;22.86;52.74;99470.88;5092135;28;19981;-52
2021/06/09 03:51:24;;;;;;;;;;;;;;;22.88;52.51;99476.81;5090845;28;20340;-50
2021/06/09 03:53:49;;;;;;;;;;;;;;;22.94;51.89;99470.19;5091959;28;19913;-49
2021/06/09 03:56:15;;;;;;;;;;;;;;;22.69;52.68;99471.34;5091963;28;19942;-50
2021/06/09 03:58:41;;;;;;;;;;;;;;;22.89;52.49;99471.09;5090500;28;20338;-48
2021/06/09 04:01:06;;;;;;;;;;;;;;;23.11;51.71;99472.44;5091708;28;20386;-49
2021/06/09 04:03:32;;;;;;;;;;;;;;;22.93;50.93;99455.03;5091610;28;20003;-49
2021/06/09 04:05:57;;;;;;;;;;;;;;;23.03;51.29;99474.72;5072811;28;19912;-49
2021/06/09 04:08:23;;;;;;;;;;;;;;;23.08;52.07;99467.63;5089888;28;19912;-50
2021/06/09 04:10:48;;;;;;;;;;;;;;;23.29;51.86;99466.22;5089817;28;19969;-51
2021/06/09 04:13:14;;;;;;;;;;;;;;;23.36;54.58;99473.97;5089568;28;20503;-50
2021/06/09 04:15:40;;;;;;;;;;;;;;;23.78;51.91;99464.91;5090721;28;20019;-49
2021/06/09 04:18:06;;;;;;;;;;;;;;;23.72;49.73;99467.97;5090608;28;19920;-50
2021/06/09 04:20:31;;;;;;;;;;;;;;;23.75;50.18;99473.63;5089686;28;19965;-49
2021/06/09 04:22:56;;;;;;;;;;;;;;;23.86;49.66;99466.16;5106095;28;20044;-49
2021/06/09 04:25:22;;;;;;;;;;;;;;;23.98;49.34;99473.81;5088990;28;19931;-50
2021/06/09 04:27:48;;;;;;;;;;;;;;;24.08;48.95;99484.50;5090925;28;19935;-49
2021/06/09 04:30:14;;;;;;;;;;;;;;;23.96;49.06;99476.03;5090715;28;19954;-48
2021/06/09 04:32:48;;;;;;;;;;;;;;;23.87;49.05;99477.81;5074353;28;19916;-51
2021/06/09 04:35:14;;;;;;;;;;;;;;;23.74;49.63;99487.50;5070700;28;19973;-52
2021/06/09 04:37:39;;;;;;;;;;;;;;;23.84;49.43;99483.81;5070478;28;20006;-51
2021/06/09 04:40:05;;;;;;;;;;;;;;;24.02;49.16;99484.91;5071026;28;19919;-50
2021/06/09 04:42:30;;;;;;;;;;;;;;;23.89;49.42;99476.41;5069937;28;20389;-49
2021/06/09 04:44:55;;;;;;;;;;;;;;;23.22;50.76;99482.84;5068683;28;19919;-50
2021/06/09 04:47:21;;;;;;;;;;;;;;;23.29;50.62;99485.22;5069938;28;19912;-53
2021/06/09 04:49:46;;;;;;;;;;;;;;;23.26;50.35;99485.00;5068496;28;19917;-52
2021/06/09 04:52:11;;;;;;;;;;;;;;;23.01;50.81;99485.03;5070162;28;19912;-50
2021/06/09 04:54:37;;;;;;;;;;;;;;;23.26;50.83;99485.00;5070094;28;19913;-48
2021/06/09 04:57:03;;;;;;;;;;;;;;;22.87;50.94;99486.06;5070318;28;19918;-49
2021/06/09 04:59:28;;;;;;;;;;;;;;;22.85;50.99;99480.91;5068968;28;19913;-51
2021/06/09 05:01:53;;;;;;;;;;;;;;;23.28;50.00;99496.38;5070114;28;20042;-51
2021/06/09 05:04:18;;;;;;;;;;;;;;;22.95;50.88;99494.34;5070393;28;20003;-51
2021/06/09 05:06:44;;;;;;;;;;;;;;;23.07;50.23;99491.22;5069834;28;20241;-52
2021/06/09 05:09:09;;;;;;;;;;;;;;;22.39;52.03;99501.25;5070279;28;19924;-50
2021/06/09 05:11:50;;;;;;;;;;;;;;;23.08;50.85;99508.31;5069899;28;20354;-50
2021/06/09 05:14:26;;;;;;;;;;;;;;;23.16;51.30;99499.53;5069731;28;19951;-51
2021/06/09 05:16:51;;;;;;;;;;;;;;;23.00;51.24;99507.03;5069414;28;20355;-50
2021/06/09 05:19:21;;;;;;;;;;;;;;;23.62;50.13;99507.78;5068273;28;19912;-50
2021/06/09 05:21:46;;;;;;;;;;;;;;;24.09;49.00;99505.13;5079049;28;19912;-51
2021/06/09 05:24:11;;;;;;;;;;;;;;;25.32;46.25;99510.06;5110241;28;19919;-50
2021/06/09 05:26:37;;;;;;;;;;;;;;;25.12;45.95;99503.94;5095715;28;20017;-50
2021/06/09 05:29:04;;;;;;;;;;;;;;;25.24;46.01;99502.63;5088743;28;19919;-48
2021/06/09 05:31:30;;;;;;;;;;;;;;;25.31;45.44;99509.25;5088411;28;19965;-50
2021/06/09 05:33:55;;;;;;;;;;;;;;;25.37;44.84;99512.69;5088417;28;19999;-52
2021/06/09 05:36:21;;;;;;;;;;;;;;;25.50;45.34;99509.09;5088749;28;19916;-52
2021/06/09 05:38:46;;;;;;;;;;;;;;;25.53;45.47;99508.50;5090096;28;19919;-51
2021/06/09 05:41:11;;;;;;;;;;;;;;;25.29;45.18;99507.97;5088457;28;19919;-51
2021/06/09 05:43:38;;;;;;;;;;;;;;;25.99;44.24;99506.59;5089742;28;19912;-50
2021/06/09 05:46:06;;;;;;;;;;;;;;;25.81;45.12;99508.34;5088674;28;19912;-51
2021/06/09 05:48:32;;;;;;;;;;;;;;;26.23;43.96;99506.22;5090066;28;19951;-48
2021/06/09 05:50:58;;;;;;;;;;;;;;;26.76;43.62;99498.25;5088574;28;19963;-53
2021/06/09 05:53:27;;;;;;;;;;;;;;;27.73;40.86;99511.66;5090352;28;19912;-51
2021/06/09 05:55:52;;;;;;;;;;;;;;;28.01;40.18;99509.41;5089893;28;19916;-51
2021/06/09 05:58:18;;;;;;;;;;;;;;;27.90;40.27;99507.34;5090142;28;19919;-52
2021/06/09 06:00:44;;;;;;;;;;;;;;;28.55;38.73;99508.09;5089322;28;19931;-47
2021/06/09 06:03:09;;;;;;;;;;;;;;;28.71;38.23;99511.91;5089379;28;19913;-50
2021/06/09 06:05:34;;;;;;;;;;;;;;;28.66;38.23;99514.81;5089724;28;19923;-48
2021/06/09 06:08:00;;;;;;;;;;;;;;;28.31;38.78;99504.00;5088426;28;19913;-51
2021/06/09 06:10:25;;;;;;;;;;;;;;;27.92;39.48;99508.63;5089810;28;20268;-49
2021/06/09 06:12:50;;;;;;;;;;;;;;;28.52;38.62;99512.31;5089581;28;19959;-49
2021/06/09 06:15:16;;;;;;;;;;;;;;;29.33;37.51;99504.09;5089192;28;20327;-50
2021/06/09 06:17:41;;;;;;;;;;;;;;;30.01;37.25;99506.53;5090820;28;19960;-50
2021/06/09 06:20:13;;;;;;;;;;;;;;;29.97;36.94;99506.41;5093071;28;19919;-50
2021/06/09 06:22:38;;;;;;;;;;;;;;;29.71;36.97;99503.09;5106120;28;20383;-49
2021/06/09 06:25:04;;;;;;;;;;;;;;;29.72;36.67;99497.28;5113710;28;20072;-49
2021/06/09 06:27:30;;;;;;;;;;;;;;;30.27;36.00;99506.22;5092217;28;19958;-50
2021/06/09 06:29:55;;;;;;;;;;;;;;;30.65;35.35;99502.38;5091750;28;20272;-51
2021/06/09 06:32:20;;;;;;;;;;;;;;;31.54;33.93;99501.53;5091665;28;19959;-51
2021/06/09 06:34:46;;;;;;;;;;;;;;;31.79;33.54;99504.19;5091441;28;19939;-49
2021/06/09 06:37:12;;;;;;;;;;;;;;;32.66;32.00;99507.19;5091344;28;20383;-51
2021/06/09 06:39:37;;;;;;;;;;;;;;;33.13;30.70;99502.72;5091466;28;19912;-52
2021/06/09 06:42:03;;;;;;;;;;;;;;;33.14;31.20;99499.63;5092963;28;19912;-50
2021/06/09 06:44:28;;;;;;;;;;;;;;;33.70;30.49;99503.94;5092915;28;19969;-50
2021/06/09 06:46:53;;;;;;;;;;;;;;;33.98;29.91;99497.31;5091370;28;19912;-50
2021/06/09 06:49:18;;;;;;;;;;;;;;;33.63;29.86;99488.03;5092340;28;20371;-49
2021/06/09 06:51:45;;;;;;;;;;;;;;;33.98;28.28;99491.81;5091499;28;19916;-49
2021/06/09 06:54:10;;;;;;;;;;;;;;;34.38;28.34;99490.53;5092772;28;20418;-51
2021/06/09 06:56:35;;;;;;;;;;;;;;;34.29;28.30;99485.28;5092663;28;19987;-50
2021/06/09 06:59:00;;;;;;;;;;;;;;;34.76;27.15;99474.94;5091242;28;20092;-52
2021/06/09 07:01:29;;;;;;;;;;;;;;;34.61;27.60;99480.22;5091442;28;19912;-51
2021/06/09 07:03:55;;;;;;;;;;;;;;;33.93;28.35;99481.06;5092829;28;19919;-50
2021/06/09 07:06:20;;;;;;;;;;;;;;;34.61;27.88;99482.19;5092854;28;20280;-50
2021/06/09 07:08:47;;;;;;;;;;;;;;;34.85;27.36;99479.03;5091464;28;19916;-49
2021/06/09 07:11:12;;;;;;;;;;;;;;;34.78;27.86;99478.91;5092400;28;19969;-49
2021/06/09 07:13:37;;;;;;;;;;;;;;;35.05;26.93;99478.88;5092314;28;20010;-51
2021/06/09 07:16:05;;;;;;;;;;;;;;;34.10;28.39;99480.59;5090549;28;19924;-50
2021/06/09 07:18:31;;;;;;;;;;;;;;;33.51;28.89;99482.66;5090707;28;20410;-50
2021/06/09 07:20:56;;;;;;;;;;;;;;;33.63;28.47;99478.94;5092249;28;19912;-49
2021/06/09 07:23:21;;;;;;;;;;;;;;;34.23;28.00;99476.50;5109340;28;19918;-51
2021/06/09 07:25:46;;;;;;;;;;;;;;;33.33;28.56;99478.75;5106491;28;20277;-50
2021/06/09 07:28:12;;;;;;;;;;;;;;;33.66;28.58;99484.56;5092037;28;19912;-50
2021/06/09 07:30:38;;;;;;;;;;;;;;;33.85;28.26;99480.97;5091202;28;19912;-50
2021/06/09 07:33:04;;;;;;;;;;;;;;;33.96;27.82;99480.34;5091894;28;20015;-49
2021/06/09 07:35:29;;;;;;;;;;;;;;;33.49;28.19;99474.75;5091795;28;20348;-49
2021/06/09 07:37:58;;;;;;;;;;;;;;;34.02;27.80;99476.88;5092012;28;19999;-49
2021/06/09 07:40:27;;;;;;;;;;;;;;;34.52;27.02;99476.97;5092103;28;19915;-48
2021/06/09 07:42:54;;;;;;;;;;;;;;;35.10;26.78;99477.78;5090421;28;20230;-49
2021/06/09 07:45:20;;;;;;;;;;;;;;;35.58;26.05;99475.19;5091786;28;19942;-50
2021/06/09 07:47:47;;;;;;;;;;;;;;;35.61;25.78;99474.44;5090086;28;19916;-51
2021/06/09 07:50:15;;;;;;;;;;;;;;;34.88;26.06;99471.97;5090234;28;19923;-49
2021/06/09 07:52:40;;;;;;;;;;;;;;;35.57;25.42;99481.91;5089926;28;19912;-48
2021/06/09 07:55:06;;;;;;;;;;;;;;;35.15;25.48;99480.22;5091272;28;19923;-50
2021/06/09 07:57:33;;;;;;;;;;;;;;;35.13;26.18;99480.59;5090205;28;19912;-49
2021/06/09 07:59:59;;;;;;;;;;;;;;;35.54;25.01;99480.69;5091836;28;19919;-49
2021/06/09 08:02:24;;;;;;;;;;;;;;;36.24;24.49;99483.78;5091646;28;19912;-52
2021/06/09 08:04:49;;;;;;;;;;;;;;;36.25;24.29;99484.56;5091876;28;20301;-50
2021/06/09 08:07:16;;;;;;;;;;;;;;;35.72;25.78;99486.44;5091492;28;19916;-51
2021/06/09 08:09:41;;;;;;;;;;;;;;;35.97;25.61;99488.66;5090612;28;20376;-50
2021/06/09 08:12:07;;;;;;;;;;;;;;;35.91;25.01;99490.16;5090897;28;20043;-51
2021/06/09 08:14:35;;;;;;;;;;;;;;;35.69;25.65;99484.44;5090036;28;19927;-49
2021/06/09 08:17:01;;;;;;;;;;;;;;;34.90;26.24;99479.88;5090071;28;20349;-50
2021/06/09 08:19:26;;;;;;;;;;;;;;;35.01;26.04;99486.34;5091086;28;19918;-50
2021/06/09 08:21:52;;;;;;;;;;;;;;;35.32;25.24;99478.84;5097326;28;19912;-51
2021/06/09 08:24:17;;;;;;;;;;;;;;;34.79;25.68;99468.69;5111374;28;20032;-51
2021/06/09 08:26:42;;;;;;;;;;;;;;;35.68;25.03;99471.78;5096140;28;19912;-51
2021/06/09 08:29:08;;;;;;;;;;;;;;;35.87;24.72;99473.56;5091361;28;20019;-50
2021/06/09 08:31:33;;;;;;;;;;;;;;;36.28;24.96;99478.28;5090254;28;20343;-51
2021/06/09 08:33:59;;;;;;;;;;;;;;;37.01;24.13;99470.03;5090714;28;20352;-49
2021/06/09 08:36:25;;;;;;;;;;;;;;;37.63;22.97;99477.44;5090587;28;20022;-49
2021/06/09 08:38:51;;;;;;;;;;;;;;;37.99;22.55;99473.91;5090640;28;19919;-51
2021/06/09 08:41:18;;;;;;;;;;;;;;;37.25;22.61;99485.22;5089866;28;20387;-49
2021/06/09 08:43:46;;;;;;;;;;;;;;;37.51;22.30;99481.34;5089252;28;19912;-50
2021/06/09 08:46:12;;;;;;;;;;;;;;;37.60;21.42;99475.41;5090787;28;20315;-48
2021/06/09 08:48:37;;;;;;;;;;;;;;;36.31;23.04;99474.72;5090610;28;19912;-50
2021/06/09 08:51:07;;;;;;;;;;;;;;;35.37;24.35;99461.91;5091402;28;19912;-51
2021/06/09 08:53:35;;;;;;;;;;;;;;;35.05;24.07;99452.06;5091085;28;19912;-48
2021/06/09 08:56:01;;;;;;;;;;;;;;;35.62;23.60;99463.00;5090386;28;20288;-48
2021/06/09 08:58:26;;;;;;;;;;;;;;;35.88;23.48;99464.06;5090335;28;20393;-49
2021/06/09 09:00:51;;;;;;;;;;;;;;;35.01;24.22;99451.22;5089719;28;19912;-52
2021/06/09 09:03:17;;;;;;;;;;;;;;;35.71;22.97;99459.94;5089033;28;19912;-51
2021/06/09 09:05:42;;;;;;;;;;;;;;;35.37;23.25;99459.94;5089882;28;19912;-49
2021/06/09 09:08:08;;;;;;;;;;;;;;;36.30;22.84;99456.53;5089841;28;20019;-49
2021/06/09 09:10:33;;;;;;;;;;;;;;;36.64;21.47;99457.13;5089271;28;19919;-49
2021/06/09 09:12:59;;;;;;;;;;;;;;;36.97;21.39;99455.34;5088759;28;19995;-50
2021/06/09 09:15:24;;;;;;;;;;;;;;;37.06;21.23;99450.25;5090088;28;19924;-49
2021/06/09 09:17:53;;;;;;;;;;;;;;;37.16;22.00;99451.50;5090117;28;19920;-52
2021/06/09 09:20:29;;;;;;;;;;;;;;;37.77;21.57;99451.66;5089779;28;19944;-51
2021/06/09 09:22:57;;;;;;;;;;;;;;;37.67;21.55;99447.69;5104517;28;19912;-50
2021/06/09 09:25:23;;;;;;;;;;;;;;;37.08;21.42;99450.66;5110259;28;19947;-50
2021/06/09 09:27:55;;;;;;;;;;;;;;;36.26;22.63;99447.41;5110282;28;19944;-50
2021/06/09 09:30:20;;;;;;;;;;;;;;;34.95;24.96;99447.16;5109799;28;20007;-49
2021/06/09 09:32:56;;;;;;;;;;;;;;;35.30;22.83;99443.28;5109815;28;19999;-49
2021/06/09 09:35:24;;;;;;;;;;;;;;;34.69;23.64;99448.03;5109959;28;20306;-50
2021/06/09 09:37:50;;;;;;;;;;;;;;;34.77;23.54;99444.19;5110222;28;19920;-49
2021/06/09 09:40:18;;;;;;;;;;;;;;;34.35;23.83;99436.03;5110396;28;20446;-48
2021/06/09 09:42:44;;;;;;;;;;;;;;;34.08;23.98;99435.97;5110188;28;19912;-49
2021/06/09 09:45:13;;;;;;;;;;;;;;;33.56;25.09;99431.91;5109779;28;19918;-48
2021/06/09 09:47:38;;;;;;;;;;;;;;;33.41;25.63;99426.13;5110124;28;20261;-49
2021/06/09 09:50:04;;;;;;;;;;;;;;;34.84;24.56;99424.94;5109731;28;20400;-50
2021/06/09 09:52:29;;;;;;;;;;;;;;;35.71;23.53;99423.97;5093013;28;19911;-52
2021/06/09 09:54:58;;;;;;;;;;;;;;;36.45;22.03;99422.19;5113300;28;20266;-48
2021/06/09 09:57:24;;;;;;;;;;;;;;;36.79;22.06;99424.78;5114262;28;20328;-49
2021/06/09 09:59:55;;;;;;;;;;;;;;;36.99;21.29;99425.25;5112995;28;19911;-48
2021/06/09 10:02:20;;;;;;;;;;;;;;;36.11;21.68;99424.31;5114367;28;20389;-48
2021/06/09 10:04:58;;;;;;;;;;;;;;;35.10;22.23;99414.97;5114116;28;19919;-49
2021/06/09 10:07:23;;;;;;;;;;;;;;;34.43;23.18;99418.41;5114327;28;19922;-49
2021/06/09 10:09:48;;;;;;;;;;;;;;;33.92;24.11;99413.25;5112595;28;19912;-51
2021/06/09 10:12:14;;;;;;;;;;;;;;;34.49;23.13;99416.13;5093448;28;19916;-51
2021/06/09 10:14:50;;;;;;;;;;;;;;;35.69;21.90;99409.72;5093485;28;20260;-50
2021/06/09 10:17:19;;;;;;;;;;;;;;;35.54;21.83;99406.00;5093240;28;19975;-48
2021/06/09 10:19:45;;;;;;;;;;;;;;;36.48;21.49;99421.44;5093048;28;20519;-50
2021/06/09 10:22:16;;;;;;;;;;;;;;;37.15;21.95;99408.31;5102357;28;19911;-50
2021/06/09 10:24:42;;;;;;;;;;;;;;;36.56;22.25;99411.97;5114098;28;19947;-49
2021/06/09 10:27:07;;;;;;;;;;;;;;;37.83;20.89;99396.56;5113432;28;19963;-50
2021/06/09 10:29:34;;;;;;;;;;;;;;;37.61;21.14;99396.56;5113253;28;19916;-50
2021/06/09 10:32:03;;;;;;;;;;;;;;;37.99;21.24;99390.63;5111799;28;19912;-50
2021/06/09 10:34:29;;;;;;;;;;;;;;;38.25;20.50;99395.75;5113102;27;20330;-50
2021/06/09 10:36:55;;;;;;;;;;;;;;;35.07;22.23;99390.06;5113077;28;19912;-49
2021/06/09 10:39:21;;;;;;;;;;;;;;;34.52;23.85;99391.34;5113191;28;19919;-50
2021/06/09 10:41:47;;;;;;;;;;;;;;;33.50;24.95;99390.03;5113220;28;19911;-47
2021/06/09 10:44:13;;;;;;;;;;;;;;;34.26;24.34;99387.41;5112941;28;19947;-50
2021/06/09 10:46:40;;;;;;;;;;;;;;;34.04;24.30;99390.97;5111476;28;19958;-48
2021/06/09 10:49:06;;;;;;;;;;;;;;;34.79;23.52;99380.28;5111603;28;19934;-49
2021/06/09 10:51:31;;;;;;;;;;;;;;;34.56;23.27;99394.16;5112959;27;20014;-49
2021/06/09 10:53:58;;;;;;;;;;;;;;;34.17;23.93;99381.34;5111763;28;19985;-50
2021/06/09 10:56:24;;;;;;;;;;;;;;;35.12;22.50;99367.59;5113261;28;20493;-51
2021/06/09 10:58:49;;;;;;;;;;;;;;;35.95;22.85;99377.53;5113093;28;19912;-49
2021/06/09 11:01:14;;;;;;;;;;;;;;;34.54;24.15;99374.38;5113112;28;19915;-47
2021/06/09 11:03:46;;;;;;;;;;;;;;;34.01;24.53;99364.13;5112118;28;20290;-49
2021/06/09 11:06:11;;;;;;;;;;;;;;;33.82;25.31;99362.25;5111656;28;19912;-52
2021/06/09 11:08:36;;;;;;;;;;;;;;;35.04;24.26;99353.69;5112830;28;19934;-48
2021/06/09 11:11:02;;;;;;;;;;;;;;;36.22;23.58;99352.44;5100694;28;19912;-49
2021/06/09 11:13:28;;;;;;;;;;;;;;;36.82;21.94;99353.91;5092586;28;19916;-49
2021/06/09 11:16:06;;;;;;;;;;;;;;;36.73;21.74;99351.53;5092900;28;19927;-50
2021/06/09 11:18:40;;;;;;;;;;;;;;;36.57;21.31;99346.25;5092910;28;19920;-51
2021/06/09 11:21:05;;;;;;;;;;;;;;;36.93;21.18;99344.44;5092670;28;20109;-52
2021/06/09 11:23:35;;;;;;;;;;;;;;;37.29;20.57;99341.00;5096393;28;20010;-49
2021/06/09 11:26:02;;;;;;;;;;;;;;;37.77;20.31;99329.53;5091545;28;20315;-52
2021/06/09 11:28:34;;;;;;;;;;;;;;;37.65;20.68;99329.94;5092037;28;19954;-51
2021/06/09 11:31:00;;;;;;;;;;;;;;;37.59;20.82;99318.41;5092300;28;19912;-50
2021/06/09 11:33:42;;;;;;;;;;;;;;;38.00;20.25;99315.22;5088701;28;20302;-47
2021/06/09 11:36:15;;;;;;;;;;;;;;;37.05;21.05;99312.81;5090333;28;19939;-49
2021/06/09 11:38:45;;;;;;;;;;;;;;;36.70;21.57;99308.75;5090989;28;19969;-50
2021/06/09 11:41:10;;;;;;;;;;;;;;;37.34;21.30;99310.09;5090949;28;19947;-51
2021/06/09 11:43:38;;;;;;;;;;;;;;;37.20;20.46;99305.31;5090910;28;19959;-48
2021/06/09 11:46:07;;;;;;;;;;;;;;;36.60;21.24;99303.94;5090229;28;19912;-49
2021/06/09 11:48:33;;;;;;;;;;;;;;;37.29;20.72;99304.94;5090404;28;19923;-50
2021/06/09 11:51:17;;;;;;;;;;;;;;;37.12;21.31;99306.47;5091329;28;19942;-52
2021/06/09 11:53:46;;;;;;;;;;;;;;;37.61;20.51;99302.19;5090298;28;19943;-50
2021/06/09 11:56:12;;;;;;;;;;;;;;;37.27;20.16;99302.56;5089767;28;20034;-50
2021/06/09 11:58:38;;;;;;;;;;;;;;;36.45;20.91;99305.06;5098518;28;19916;-50
2021/06/09 12:01:03;;;;;;;;;;;;;;;34.64;22.98;99288.88;5093927;28;19916;-48
2021/06/09 12:03:28;;;;;;;;;;;;;;;34.33;23.28;99284.56;5092862;28;19923;-51
2021/06/09 12:05:55;;;;;;;;;;;;;;;33.85;24.29;99287.00;5097062;28;19927;-51
2021/06/09 12:08:21;;;;;;;;;;;;;;;34.66;23.61;99289.28;5089974;28;20434;-52
2021/06/09 12:10:52;;;;;;;;;;;;;;;36.18;22.07;99283.19;5090327;28;19915;-49
2021/06/09 12:13:27;;;;;;;;;;;;;;;36.54;21.14;99289.66;5089428;28;19938;-51
2021/06/09 12:16:14;;;;;;;;;;;;;;;36.19;20.51;99274.50;5089658;28;19920;-50
2021/06/09 12:18:39;;;;;;;;;;;;;;;36.78;20.30;99282.66;5089590;28;19984;-51
2021/06/09 12:21:06;;;;;;;;;;;;;;;37.64;20.38;99282.00;5089417;28;19915;-51
2021/06/09 12:23:31;;;;;;;;;;;;;;;37.68;20.13;99280.00;5110154;28;19912;-51
2021/06/09 12:25:56;;;;;;;;;;;;;;;37.41;20.11;99273.22;5110137;28;19912;-50
2021/06/09 12:28:22;;;;;;;;;;;;;;;37.98;19.79;99286.28;5110337;28;20071;-50
2021/06/09 12:30:57;;;;;;;;;;;;;;;38.29;18.58;99284.63;5102133;28;19955;-47
2021/06/09 12:33:38;;;;;;;;;;;;;;;38.64;17.72;99271.81;5089570;28;19920;-51
2021/06/09 12:36:10;;;;;;;;;;;;;;;38.63;18.44;99272.97;5089646;28;19916;-49
2021/06/09 12:38:36;;;;;;;;;;;;;;;38.19;18.46;99268.78;5091539;28;19955;-50
2021/06/09 12:41:02;;;;;;;;;;;;;;;36.23;20.67;99266.19;5097863;28;19916;-47
2021/06/09 12:43:27;;;;;;;;;;;;;;;36.83;20.03;99270.38;5097486;28;19934;-48
2021/06/09 12:45:52;;;;;;;;;;;;;;;35.54;22.10;99275.19;5104451;28;19919;-48
2021/06/09 12:48:19;;;;;;;;;;;;;;;35.16;22.63;99278.00;5092491;28;19912;-50